KSNA

John Wayne-Orange County Airport

Santa Ana, California, USA
METAR KSNA 170953Z AUTO 00000KT 6SM BR CLR 13/12 A3012 RMK AO2 SLP200 T01330117
Observed Flight Rules
Jan-17 @ 09:53 UTC (47 minutes ago) Visual Flight Rules
Wind Visibility Clouds Conditions
Calm 6 miles
  • Clear skies
  • Mist
Temperatures Readings
Current 13°C / 55°F
Dewpoint 12°C / 54°F
Humidity 94%
Altimeter 30.12" Hg
Pressure 1020 hPa
Elevation 16
METAR KSNA 170953Z AUTO 00000KT 6SM BR CLR 13/12 A3012 RMK AO2 SLP200 T01330117
Observed Flight Rules
Jan-17 @ 09:53 UTC
(47 minutes ago)
VFR
Wind Visibility
Calm 6 miles
Clouds
  • Clear skies
Conditions
  • Mist
Temperature Dewpoint
13°C / 55°F 12°C / 54°F
Humidity Altimeter Pressure
94% 30.12" Hg 1020 hPa